This is the latest recevied weather packets stored in our database for station/object IW0REF-14. If no packets are shown the sender has not sent any weather packets the latest 10 day(s).
| Time | Temp. | Humidity | Pressure | Rain* | Wind** | Luminosity | Snow |
|---|---|---|---|---|---|---|---|
| 1777057858 | 10° C | 39% | 1013.3 hPa | - | - | - | - |
| 1777056958 | 10.56° C | 40% | 1013.4 hPa | - | - | - | - |
| 1777056058 | 10.56° C | 42% | 1013.2 hPa | - | - | - | - |
| 1777055158 | 10.56° C | 41% | 1013.1 hPa | - | - | - | - |
| 1777054258 | 11.67° C | 41% | 1013 hPa | - | - | - | - |
| 1777053357 | 13.33° C | 38% | 1012.9 hPa | - | - | - | - |
| 1777052457 | 15° C | 34% | 1012.8 hPa | - | - | - | - |
| 1777051557 | 16.67° C | 31% | 1012.7 hPa | - | - | - | - |
| 1777050657 | 18.33° C | 27% | 1012.7 hPa | - | - | - | - |
| 1777049757 | 18.33° C | 27% | 1012.6 hPa | - | - | - | - |
| 1777048857 | 18.89° C | 26% | 1012.6 hPa | - | - | - | - |
| 1777047957 | 20.56° C | 24% | 1012.7 hPa | - | - | - | - |
| 1777047057 | 21.67° C | 20% | 1012.8 hPa | - | - | - | - |
| 1777046157 | 22.22° C | 16% | 1012.8 hPa | - | - | - | - |
| 1777045257 | 22.22° C | 16% | 1013 hPa | - | - | - | - |
| 1777044357 | 24.44° C | 15% | 1013.1 hPa | - | - | - | - |
| 1777043457 | 22.78° C | 16% | 1013.1 hPa | - | - | - | - |
| 1777042616 | 21.11° C | 18% | 1013.2 hPa | - | - | - | - |
| 1777042559 | 21.11° C | 18% | 1013.2 hPa | - | - | - | - |
| 1777041656 | 22.22° C | 16% | 1013.3 hPa | - | - | - | - |
| 1777040756 | 21.67° C | 17% | 1013.5 hPa | - | - | - | - |
| 1777039856 | 21.11° C | 18% | 1013.5 hPa | - | - | - | - |
| 1777038956 | 22.22° C | 17% | 1013.6 hPa | - | - | - | - |
| 1777038056 | 22.78° C | 17% | 1013.8 hPa | - | - | - | - |
| 1777037156 | 22.78° C | 14% | 1013.7 hPa | - | - | - | - |
* Rain since midnight (hover to see other rain measurements)
** Current wind speed in m/s (hover to see current wind gust speed)